Time,TemperatureF,DewpointF,PressureIn,WindDirection,WindDirectionDegrees,WindSpeedMPH,WindSpeedGustMPH,Humidity,HourlyPrecipIn,Conditions,Clouds,dailyrainin,SoftwareType,DateUTC
2014-01-28 00:22:00,-4.0,-11.0,-100.00,SW,230,2.0,2.0,72,0.00,,,-99.99,,2014-01-28 06:22:00,
2014-01-28 00:42:00,-4.0,-10.0,-100.00,West,260,2.0,2.0,73,0.00,,,-99.99,,2014-01-28 06:42:00,
2014-01-28 01:22:00,-5.0,-11.0,-100.00,WSW,245,2.0,2.0,73,0.00,,,-99.99,,2014-01-28 07:22:00,
2014-01-28 01:42:00,-6.0,-12.0,-100.00,SW,230,2.0,3.0,74,0.00,,,-99.99,,2014-01-28 07:42:00,
2014-01-28 02:21:00,-6.0,-11.0,-100.00,WSW,250,2.0,3.0,77,0.00,,,-99.99,,2014-01-28 08:21:00,
2014-01-28 02:42:00,-5.0,-10.0,-100.00,West,265,3.0,3.0,78,0.00,,,-99.99,,2014-01-28 08:42:00,
2014-01-28 03:21:00,-5.0,-9.0,-100.00,West,260,3.0,3.0,80,0.00,,,-99.99,,2014-01-28 09:21:00,
2014-01-28 03:43:00,-5.0,-9.0,-100.00,West,260,3.0,4.0,81,0.00,,,-99.99,,2014-01-28 09:43:00,
2014-01-28 04:23:00,-6.0,-10.0,-100.00,West,265,4.0,4.0,82,0.00,,,-99.99,,2014-01-28 10:23:00,
2014-01-28 04:42:00,-5.0,-9.0,-100.00,West,280,2.0,4.0,82,0.00,,,-99.99,,2014-01-28 10:42:00,
2014-01-28 05:22:00,-5.0,-9.0,-100.00,West,270,4.0,5.0,82,0.00,,,-99.99,,2014-01-28 11:22:00,
2014-01-28 05:42:00,-5.0,-9.0,-100.00,West,275,2.0,4.0,82,0.00,,,-99.99,,2014-01-28 11:42:00,
2014-01-28 06:22:00,-5.0,-9.0,-100.00,West,275,5.0,6.0,82,0.00,,,-99.99,,2014-01-28 12:22:00,
2014-01-28 06:42:00,-3.0,-7.0,-100.00,West,280,4.0,11.0,82,0.00,,,-99.99,,2014-01-28 12:42:00,
2014-01-28 07:22:00,-6.0,-10.0,-100.00,WSW,255,4.0,5.0,81,0.00,,,-99.99,,2014-01-28 13:22:00,
2014-01-28 07:42:00,-5.0,-10.0,-100.00,WSW,245,4.0,4.0,81,0.00,,,-99.99,,2014-01-28 13:42:00,
2014-01-28 08:22:00,-5.0,-9.0,-100.00,SW,215,4.0,6.0,82,0.00,,,-99.99,,2014-01-28 14:22:00,
2014-01-28 08:42:00,-3.0,-7.0,-100.00,SW,215,4.0,6.0,82,0.00,,,-99.99,,2014-01-28 14:42:00,
2014-01-28 09:22:00,0.0,-5.0,-100.00,WSW,250,4.0,6.0,80,0.00,,,-99.99,,2014-01-28 15:22:00,
2014-01-28 09:43:00,2.0,-3.0,-100.00,West,260,4.0,6.0,79,0.00,,,-99.99,,2014-01-28 15:43:00,
2014-01-28 10:23:00,5.0,-2.0,-100.00,West,260,6.0,8.0,72,0.00,,,-99.99,,2014-01-28 16:23:00,
2014-01-28 10:43:00,6.0,-2.0,-100.00,West,265,6.0,9.0,68,0.00,,,-99.99,,2014-01-28 16:43:00,
2014-01-28 11:22:00,9.0,-1.0,-100.00,WSW,255,7.0,15.0,63,0.00,,,-99.99,,2014-01-28 17:22:00,
2014-01-28 11:43:00,10.0,-1.0,-100.00,West,260,7.0,15.0,61,0.00,,,-99.99,,2014-01-28 17:43:00,
2014-01-28 12:22:00,11.0,-1.0,-100.00,WNW,285,13.0,20.0,56,0.00,,,-99.99,,2014-01-28 18:22:00,
2014-01-28 12:43:00,12.0,-1.0,-100.00,WNW,290,17.0,23.0,54,0.00,,,-99.99,,2014-01-28 18:43:00,
2014-01-28 13:22:00,13.0,-1.0,-100.00,WNW,295,11.0,24.0,51,0.00,,,-99.99,,2014-01-28 19:22:00,
2014-01-28 13:42:00,15.0,-1.0,-100.00,WNW,290,9.0,17.0,50,0.00,,,-99.99,,2014-01-28 19:42:00,
2014-01-28 14:22:00,15.0,-1.0,-100.00,WNW,300,16.0,24.0,46,0.00,,,-99.99,,2014-01-28 20:22:00,
2014-01-28 14:42:00,16.0,-1.0,-100.00,WSW,250,11.0,21.0,45,0.00,,,-99.99,,2014-01-28 20:42:00,
2014-01-28 15:22:00,16.0,-2.0,-100.00,WNW,290,13.0,21.0,43,0.00,,,-99.99,,2014-01-28 21:22:00,
2014-01-28 15:43:00,16.0,-3.0,-100.00,WNW,285,16.0,21.0,42,0.00,,,-99.99,,2014-01-28 21:43:00,
2014-01-28 16:23:00,16.0,-2.0,-100.00,WNW,300,12.0,17.0,42,0.00,,,-99.99,,2014-01-28 22:23:00,
2014-01-28 16:43:00,16.0,-3.0,-100.00,West,275,8.0,19.0,42,0.00,,,-99.99,,2014-01-28 22:43:00,
2014-01-28 17:22:00,15.0,-4.0,-100.00,West,280,9.0,17.0,42,0.00,,,-99.99,,2014-01-28 23:22:00,
2014-01-28 17:42:00,14.0,-5.0,-100.00,WNW,300,9.0,16.0,42,0.00,,,-99.99,,2014-01-28 23:42:00,
2014-01-28 18:22:00,12.0,-6.0,-100.00,WNW,295,4.0,8.0,43,0.00,,,-99.99,,2014-01-29 00:22:00,
2014-01-28 18:42:00,11.0,-6.0,-100.00,WNW,300,3.0,6.0,44,0.00,,,-99.99,,2014-01-29 00:42:00,
2014-01-28 19:42:00,10.0,-6.0,-100.00,WNW,285,4.0,6.0,47,0.00,,,-99.99,,2014-01-29 01:42:00,
2014-01-28 20:22:00,9.0,-6.0,-100.00,WNW,285,4.0,5.0,50,0.00,,,-99.99,,2014-01-29 02:22:00,
2014-01-28 20:42:00,7.0,-7.0,-100.00,West,265,4.0,5.0,51,0.00,,,-99.99,,2014-01-29 02:42:00,
2014-01-28 21:21:00,7.0,-6.0,-100.00,WSW,240,4.0,5.0,54,0.00,,,-99.99,,2014-01-29 03:21:00,
2014-01-28 21:43:00,6.0,-6.0,-100.00,WSW,245,3.0,5.0,56,0.00,,,-99.99,,2014-01-29 03:43:00,
2014-01-28 22:23:00,5.0,-6.0,-100.00,WSW,245,4.0,4.0,59,0.00,,,-99.99,,2014-01-29 04:23:00,
2014-01-28 22:43:00,6.0,-5.0,-100.00,SW,235,4.0,4.0,59,0.00,,,-99.99,,2014-01-29 04:43:00,
2014-01-28 23:22:00,4.0,-7.0,-100.00,SSW,210,6.0,6.0,60,0.00,,,-99.99,,2014-01-29 05:22:00,
2014-01-28 23:42:00,3.0,-7.0,-100.00,SW,220,6.0,6.0,62,0.00,,,-99.99,,2014-01-29 05:42:00,